Time;durP1;ratioP1;P1;durP2;ratioP2;P2;SDS_P1;SDS_P2;PMS_P1;PMS_P2;Temp;Humidity;BMP_temperature;BMP_pressure;BME280_temperature;BME280_humidity;BME280_pressure;Samples;Min_cycle;Max_cycle;Signal;HPM_P1;HPM_P2
2021/08/30 00:00:19;;;;;;;2.97;2.77;;;17.70;99.90;;;;;;5072452;28;20804;-61
2021/08/30 00:02:46;;;;;;;3.63;3.30;;;17.70;99.90;;;;;;5072164;28;20466;-60
2021/08/30 00:05:13;;;;;;;3.27;3.07;;;17.70;99.90;;;;;;5072324;28;20458;-61
2021/08/30 00:07:41;;;;;;;3.43;3.17;;;17.70;99.90;;;;;;5071612;28;20458;-61
2021/08/30 00:10:09;;;;;;;3.27;3.00;;;17.70;99.90;;;;;;5072622;28;20806;-61
2021/08/30 00:12:40;;;;;;;3.77;3.43;;;17.70;99.90;;;;;;5057988;28;20494;-61
2021/08/30 00:15:08;;;;;;;3.10;2.90;;;17.60;99.90;;;;;;5062049;28;20498;-61
2021/08/30 00:17:35;;;;;;;2.80;2.60;;;17.60;99.90;;;;;;5072507;28;20549;-61
2021/08/30 00:20:02;;;;;;;3.30;2.83;;;17.60;99.90;;;;;;5071828;28;20812;-61
2021/08/30 00:22:28;;;;;;;2.70;2.50;;;17.60;99.90;;;;;;5072111;28;20473;-61
2021/08/30 00:24:57;;;;;;;3.20;2.90;;;17.60;99.90;;;;;;5070868;28;20753;-61
2021/08/30 00:27:24;;;;;;;3.30;3.00;;;17.60;99.90;;;;;;5072244;28;20238;-61
2021/08/30 00:29:50;;;;;;;3.90;3.60;;;17.70;99.90;;;;;;5076208;28;20487;-61
2021/08/30 00:32:17;;;;;;;3.23;2.93;;;17.70;99.90;;;;;;5076477;28;20785;-61
2021/08/30 00:34:44;;;;;;;4.00;3.43;;;17.70;99.90;;;;;;5075629;28;20470;-61
2021/08/30 00:37:11;;;;;;;3.30;3.00;;;17.70;99.90;;;;;;5076134;28;20805;-61
2021/08/30 00:39:38;;;;;;;3.17;2.90;;;17.70;99.90;;;;;;5075516;28;20471;-61
2021/08/30 00:42:07;;;;;;;4.60;4.20;;;17.70;99.90;;;;;;5075975;28;20466;-61
2021/08/30 00:44:34;;;;;;;3.27;2.97;;;17.70;99.90;;;;;;5076116;28;20466;-61
2021/08/30 00:47:01;;;;;;;5.40;4.90;;;17.70;99.90;;;;;;5053864;28;20467;-61
2021/08/30 00:49:28;;;;;;;4.13;3.80;;;17.60;99.90;;;;;;5053924;28;20463;-61
2021/08/30 00:51:55;;;;;;;3.47;3.17;;;17.60;99.90;;;;;;5054247;28;20497;-61
2021/08/30 00:54:23;;;;;;;3.10;2.83;;;17.60;99.90;;;;;;5052747;28;20495;-61
2021/08/30 00:56:50;;;;;;;3.07;2.87;;;17.60;99.90;;;;;;5051799;28;20471;-61
2021/08/30 00:59:18;;;;;;;3.20;2.53;;;17.60;99.90;;;;;;5049960;28;20506;-61
2021/08/30 01:01:45;;;;;;;2.70;2.50;;;17.60;99.90;;;;;;5052359;28;20490;-61
2021/08/30 01:04:13;;;;;;;3.10;2.60;;;17.60;99.90;;;;;;5054333;28;20455;-61
2021/08/30 01:06:45;;;;;;;3.27;3.07;;;17.60;99.90;;;;;;5055316;28;20463;-61
2021/08/30 01:09:21;;;;;;;3.57;3.27;;;17.60;99.90;;;;;;5055233;28;21308;-61
2021/08/30 01:11:54;;;;;;;5.50;5.00;;;17.60;99.90;;;;;;5054934;28;20471;-61
2021/08/30 01:14:24;;;;;;;6.30;5.30;;;17.60;99.90;;;;;;5053855;28;20981;-61
2021/08/30 01:16:52;;;;;;;4.07;3.77;;;17.60;99.90;;;;;;5045983;28;20509;-61
2021/08/30 01:19:25;;;;;;;3.40;3.10;;;17.60;99.90;;;;;;5055217;28;20484;-61
2021/08/30 01:21:53;;;;;;;3.33;3.13;;;17.60;99.90;;;;;;5057258;28;20473;-61
2021/08/30 01:24:21;;;;;;;3.20;3.00;;;17.60;99.90;;;;;;5052411;28;20481;-61
2021/08/30 01:26:51;;;;;;;4.00;3.70;;;17.60;99.90;;;;;;5045075;28;20463;-61
2021/08/30 01:29:25;;;;;;;3.87;3.47;;;17.60;99.90;;;;;;5053707;28;20534;-61
2021/08/30 01:31:56;;;;;;;4.23;3.93;;;17.60;99.90;;;;;;5046995;28;20476;-61
2021/08/30 01:34:26;;;;;;;4.23;3.87;;;17.60;99.90;;;;;;5042320;28;21268;-61
2021/08/30 01:36:53;;;;;;;3.83;3.53;;;17.60;99.90;;;;;;5054645;28;20466;-61
2021/08/30 01:39:25;;;;;;;3.73;3.43;;;17.60;99.90;;;;;;5054450;28;20467;-61
2021/08/30 01:41:53;;;;;;;3.40;3.13;;;17.60;99.90;;;;;;5054929;28;20467;-61
2021/08/30 01:44:21;;;;;;;4.50;4.10;;;17.60;99.90;;;;;;5054118;28;20473;-61
2021/08/30 01:46:48;;;;;;;3.70;3.40;;;17.50;99.90;;;;;;5064068;28;20467;-61
2021/08/30 01:49:16;;;;;;;5.23;4.30;;;17.50;99.90;;;;;;5070762;28;20470;-61
2021/08/30 01:51:47;;;;;;;4.00;3.70;;;17.50;99.90;;;;;;5070249;28;20545;-61
2021/08/30 01:54:14;;;;;;;4.53;4.13;;;17.50;99.90;;;;;;5054337;28;20879;-61
2021/08/30 01:56:46;;;;;;;6.77;5.50;;;17.50;99.90;;;;;;5055018;28;20487;-61
2021/08/30 02:04:50;;;;;;;3.60;3.30;;;17.50;99.90;;;;;;5072889;28;20526;-61
2021/08/30 02:07:27;;;;;;;4.33;3.70;;;17.40;99.90;;;;;;5072757;28;20471;-61
2021/08/30 02:10:05;;;;;;;4.03;3.73;;;17.40;99.90;;;;;;5071682;28;20466;-62
2021/08/30 02:12:47;;;;;;;4.87;4.47;;;17.40;99.90;;;;;;5072833;28;20978;-61
2021/08/30 02:20:55;;;;;;;5.47;3.87;;;17.40;99.90;;;;;;5054304;28;20968;-61
2021/08/30 02:23:32;;;;;;;5.07;4.60;;;17.40;99.90;;;;;;5054264;28;20473;-61
2021/08/30 02:26:03;;;;;;;3.47;3.17;;;17.40;99.90;;;;;;5061310;28;20469;-60
2021/08/30 02:28:31;;;;;;;4.20;3.63;;;17.40;99.90;;;;;;5074355;28;20484;-61
2021/08/30 02:31:01;;;;;;;3.90;3.60;;;17.40;99.90;;;;;;5073832;28;20457;-62
2021/08/30 02:33:28;;;;;;;4.60;4.20;;;17.40;99.90;;;;;;5074339;28;20468;-62
2021/08/30 02:36:02;;;;;;;5.97;5.47;;;17.40;99.90;;;;;;5073800;28;20462;-61
2021/08/30 02:38:32;;;;;;;4.00;3.70;;;17.40;99.90;;;;;;5072746;28;20453;-62
2021/08/30 02:41:01;;;;;;;7.40;6.80;;;17.40;99.90;;;;;;5074257;28;20807;-61
2021/08/30 02:43:29;;;;;;;5.40;5.00;;;17.40;99.90;;;;;;5073730;28;20464;-61
2021/08/30 02:45:57;;;;;;;4.40;4.00;;;17.30;99.90;;;;;;5073543;28;20476;-61
2021/08/30 02:48:25;;;;;;;4.10;3.80;;;17.40;99.90;;;;;;5073454;28;21046;-61
2021/08/30 02:50:53;;;;;;;3.37;3.17;;;17.30;99.90;;;;;;5073204;28;20971;-61
2021/08/30 02:53:20;;;;;;;3.40;3.00;;;17.40;99.90;;;;;;5073456;28;20498;-61
2021/08/30 02:55:49;;;;;;;5.13;4.63;;;17.40;99.90;;;;;;5073770;28;20462;-61
2021/08/30 02:58:16;;;;;;;4.20;3.90;;;17.30;99.90;;;;;;5073246;28;20469;-62
2021/08/30 03:00:43;;;;;;;3.70;3.40;;;17.30;99.90;;;;;;5073565;28;20483;-61
2021/08/30 03:03:10;;;;;;;4.00;3.60;;;17.30;99.90;;;;;;5073270;28;20467;-61
2021/08/30 03:05:40;;;;;;;4.10;3.80;;;17.30;99.90;;;;;;5073460;28;20470;-61
2021/08/30 03:08:07;;;;;;;3.37;3.07;;;17.30;99.90;;;;;;5073091;28;20816;-60
2021/08/30 03:10:35;;;;;;;3.77;3.50;;;17.30;99.90;;;;;;5073451;28;20466;-61
2021/08/30 03:13:05;;;;;;;4.57;4.17;;;17.30;99.90;;;;;;5073495;28;20548;-61
2021/08/30 03:15:34;;;;;;;4.27;3.97;;;17.30;99.90;;;;;;5073121;28;21227;-61
2021/08/30 03:18:05;;;;;;;4.30;3.90;;;17.30;99.90;;;;;;5073443;28;20476;-62
2021/08/30 03:20:33;;;;;;;4.37;4.07;;;17.30;99.90;;;;;;5072806;28;20463;-62
2021/08/30 03:23:02;;;;;;;4.57;4.17;;;17.30;99.90;;;;;;5073271;28;20463;-62
2021/08/30 03:25:32;;;;;;;4.00;3.70;;;17.30;99.90;;;;;;5072924;28;20833;-62
2021/08/30 03:28:00;;;;;;;4.90;4.50;;;17.30;99.90;;;;;;5073073;28;20476;-62
2021/08/30 03:30:29;;;;;;;5.43;4.93;;;17.30;99.90;;;;;;5072640;28;20467;-61
2021/08/30 03:32:56;;;;;;;4.40;4.10;;;17.30;99.90;;;;;;5073064;28;20485;-62
2021/08/30 03:35:24;;;;;;;4.20;3.90;;;17.40;99.90;;;;;;5072573;28;20470;-61
2021/08/30 03:37:51;;;;;;;5.33;4.83;;;17.40;99.90;;;;;;5072876;28;20462;-62
2021/08/30 03:40:19;;;;;;;6.10;5.50;;;17.40;99.90;;;;;;5072543;28;20470;-62
2021/08/30 03:42:48;;;;;;;5.30;4.80;;;17.40;99.90;;;;;;5072987;28;20793;-62
2021/08/30 03:45:16;;;;;;;4.60;4.20;;;17.40;99.90;;;;;;5072329;28;20474;-62
2021/08/30 03:47:44;;;;;;;6.17;5.47;;;17.40;99.90;;;;;;5072918;28;20459;-62
2021/08/30 03:50:13;;;;;;;5.77;5.27;;;17.40;99.90;;;;;;5072351;28;20474;-62
2021/08/30 03:52:42;;;;;;;6.60;6.00;;;17.40;99.90;;;;;;5072669;28;20466;-61
2021/08/30 03:55:11;;;;;;;6.30;5.73;;;17.40;99.90;;;;;;5072728;28;20808;-62
2021/08/30 03:57:38;;;;;;;6.47;5.93;;;17.40;99.90;;;;;;5072596;28;20450;-62
2021/08/30 04:00:08;;;;;;;5.90;5.40;;;17.40;99.90;;;;;;5072620;28;20957;-62
2021/08/30 04:02:35;;;;;;;6.37;5.77;;;17.40;99.90;;;;;;5071691;28;20846;-61
2021/08/30 04:05:05;;;;;;;7.03;6.43;;;17.40;99.90;;;;;;5072592;28;20467;-61
2021/08/30 04:07:33;;;;;;;7.10;6.50;;;17.40;99.90;;;;;;5072082;28;20532;-61
2021/08/30 04:10:00;;;;;;;6.00;5.50;;;17.40;99.90;;;;;;5072590;28;20470;-62
2021/08/30 04:12:28;;;;;;;6.87;6.33;;;17.40;99.90;;;;;;5072170;28;20972;-61
2021/08/30 04:14:55;;;;;;;8.70;7.70;;;17.40;99.90;;;;;;5072521;28;20952;-62
2021/08/30 04:17:22;;;;;;;5.90;5.40;;;17.40;99.90;;;;;;5072156;28;20462;-61
2021/08/30 04:19:49;;;;;;;6.90;6.30;;;17.40;99.90;;;;;;5072750;28;20462;-62
2021/08/30 04:22:17;;;;;;;6.70;6.10;;;17.40;99.90;;;;;;5071962;28;20485;-62
2021/08/30 04:24:44;;;;;;;6.20;5.47;;;17.40;99.90;;;;;;5072743;28;20803;-62
2021/08/30 04:27:12;;;;;;;6.30;5.70;;;17.40;99.90;;;;;;5072471;28;20472;-61
2021/08/30 04:29:39;;;;;;;5.50;5.03;;;17.40;99.90;;;;;;5071975;28;20474;-61
2021/08/30 04:32:07;;;;;;;6.60;6.00;;;17.40;99.90;;;;;;5072490;28;20544;-62
2021/08/30 04:34:35;;;;;;;7.00;6.40;;;17.40;99.90;;;;;;5071964;28;20458;-61
2021/08/30 04:37:02;;;;;;;6.23;5.63;;;17.40;99.90;;;;;;5072141;28;20461;-62
2021/08/30 04:39:30;;;;;;;6.20;5.70;;;17.40;99.90;;;;;;5071981;28;20466;-61
2021/08/30 04:41:57;;;;;;;5.87;5.37;;;17.40;99.90;;;;;;5072470;28;20476;-61
2021/08/30 04:44:24;;;;;;;7.07;6.47;;;17.40;99.90;;;;;;5071629;28;20472;-62
2021/08/30 04:46:51;;;;;;;7.87;7.17;;;17.50;99.90;;;;;;5072127;28;20466;-61
2021/08/30 04:49:18;;;;;;;7.50;6.57;;;17.50;99.90;;;;;;5071700;28;20476;-61
2021/08/30 04:51:45;;;;;;;8.87;8.03;;;17.50;99.90;;;;;;5072276;28;20466;-62
2021/08/30 04:54:12;;;;;;;9.27;7.83;;;17.50;99.90;;;;;;5072155;28;20473;-61
2021/08/30 04:56:41;;;;;;;8.97;8.03;;;17.40;99.90;;;;;;5071615;28;20470;-61
2021/08/30 04:59:08;;;;;;;10.50;9.50;;;17.40;99.90;;;;;;5072072;28;20471;-61
2021/08/30 05:01:35;;;;;;;9.27;8.37;;;17.40;99.90;;;;;;5071789;28;20998;-61
2021/08/30 05:04:02;;;;;;;9.27;8.37;;;17.40;99.90;;;;;;5072059;28;20545;-62
2021/08/30 05:06:29;;;;;;;9.20;8.30;;;17.40;99.90;;;;;;5071357;28;20536;-61
2021/08/30 05:08:56;;;;;;;8.40;7.53;;;17.50;99.90;;;;;;5071876;28;20477;-61
2021/08/30 05:11:23;;;;;;;10.83;8.90;;;17.50;99.90;;;;;;5071476;28;20493;-61
2021/08/30 05:13:51;;;;;;;9.37;8.20;;;17.50;99.90;;;;;;5072175;28;20476;-60
2021/08/30 05:16:18;;;;;;;10.23;8.80;;;17.50;99.90;;;;;;5075599;28;20469;-61
2021/08/30 05:18:45;;;;;;;10.47;8.60;;;17.50;99.90;;;;;;5075284;28;20468;-61
2021/08/30 05:21:11;;;;;;;10.47;8.23;;;17.50;99.90;;;;;;5075565;28;20473;-61
2021/08/30 05:23:38;;;;;;;11.17;9.30;;;17.50;99.90;;;;;;5075144;28;20473;-61
2021/08/30 05:26:05;;;;;;;11.90;9.60;;;17.50;99.90;;;;;;5075367;28;20470;-61
2021/08/30 05:28:32;;;;;;;9.33;8.43;;;17.50;99.90;;;;;;5075030;28;20477;-61
2021/08/30 05:31:00;;;;;;;11.87;8.73;;;17.50;99.90;;;;;;5075373;28;20472;-61
2021/08/30 05:33:27;;;;;;;10.60;9.50;;;17.60;99.90;;;;;;5074934;28;20835;-61
2021/08/30 05:35:54;;;;;;;12.60;10.30;;;17.60;99.90;;;;;;5075340;28;20466;-61
2021/08/30 05:38:21;;;;;;;13.87;11.80;;;17.60;99.90;;;;;;5075132;28;20466;-61
2021/08/30 05:40:47;;;;;;;13.60;11.50;;;17.60;99.90;;;;;;5075088;28;20458;-61
2021/08/30 05:43:14;;;;;;;13.40;12.10;;;17.60;99.90;;;;;;5075262;28;20465;-61
2021/08/30 05:45:41;;;;;;;19.93;16.23;;;17.60;99.90;;;;;;5074607;28;20568;-61
2021/08/30 05:48:09;;;;;;;15.87;13.13;;;17.60;99.90;;;;;;5075030;28;20476;-61
2021/08/30 05:50:36;;;;;;;16.83;15.03;;;17.70;99.90;;;;;;5074632;28;20476;-61
2021/08/30 05:53:03;;;;;;;13.60;12.20;;;17.70;99.90;;;;;;5075020;28;20458;-61
2021/08/30 05:55:30;;;;;;;13.90;12.40;;;17.70;99.90;;;;;;5074563;28;20477;-61
2021/08/30 05:57:56;;;;;;;13.30;12.00;;;17.70;99.90;;;;;;5074893;28;20952;-61
2021/08/30 06:00:23;;;;;;;14.60;12.87;;;17.70;99.90;;;;;;5074921;28;20480;-61
2021/08/30 06:02:50;;;;;;;14.73;12.70;;;17.70;99.90;;;;;;5074795;28;20560;-61
2021/08/30 06:05:18;;;;;;;15.60;13.30;;;17.70;99.90;;;;;;5074846;28;20839;-61
2021/08/30 06:07:45;;;;;;;13.33;12.03;;;17.80;99.90;;;;;;5074309;28;20469;-61
2021/08/30 06:10:14;;;;;;;14.93;12.83;;;17.80;99.90;;;;;;5074878;28;20470;-61
2021/08/30 06:12:41;;;;;;;14.50;13.00;;;17.80;99.90;;;;;;5074189;28;20465;-61
2021/08/30 06:15:09;;;;;;;13.07;11.67;;;17.80;99.90;;;;;;5074740;28;20859;-61
2021/08/30 06:17:36;;;;;;;13.10;11.70;;;17.90;99.90;;;;;;5074132;28;20471;-62
2021/08/30 06:20:03;;;;;;;16.97;14.53;;;17.80;99.90;;;;;;5074503;28;20945;-61
2021/08/30 06:22:31;;;;;;;15.07;13.47;;;17.90;99.90;;;;;;5074046;28;20473;-61
2021/08/30 06:24:57;;;;;;;13.97;12.47;;;17.80;99.90;;;;;;5074536;28;20956;-62
2021/08/30 06:27:24;;;;;;;14.30;12.80;;;17.90;99.90;;;;;;5073514;28;20476;-62
2021/08/30 06:29:51;;;;;;;15.03;13.43;;;17.90;99.90;;;;;;5073809;28;20476;-61
2021/08/30 06:32:18;;;;;;;15.00;12.43;;;17.90;99.90;;;;;;5073565;28;20462;-61
2021/08/30 06:34:45;;;;;;;12.87;11.40;;;17.90;99.90;;;;;;5073564;28;20485;-62
2021/08/30 06:37:12;;;;;;;15.13;13.53;;;17.90;99.90;;;;;;5072783;28;20979;-61
2021/08/30 06:39:40;;;;;;;14.73;13.13;;;18.00;99.90;;;;;;5073051;28;20476;-62
2021/08/30 06:42:08;;;;;;;16.10;13.50;;;18.00;99.90;;;;;;5074041;28;20473;-61
2021/08/30 06:44:35;;;;;;;15.17;12.93;;;18.00;99.90;;;;;;5073827;28;20803;-61
2021/08/30 06:47:02;;;;;;;14.73;13.17;;;18.00;99.90;;;;;;5074278;28;20461;-61
2021/08/30 06:49:29;;;;;;;15.70;12.60;;;18.00;99.90;;;;;;5073340;28;20549;-62
2021/08/30 06:51:56;;;;;;;13.90;11.50;;;18.00;99.90;;;;;;5073733;28;20466;-61
2021/08/30 06:54:23;;;;;;;17.33;13.50;;;18.00;99.90;;;;;;5073999;28;20469;-62
2021/08/30 06:56:51;;;;;;;13.33;12.03;;;18.10;99.90;;;;;;5073092;28;20476;-62
2021/08/30 06:59:18;;;;;;;14.40;12.87;;;18.10;99.90;;;;;;5073599;28;20553;-61
2021/08/30 07:01:45;;;;;;;13.80;11.53;;;18.10;99.90;;;;;;5073173;28;20471;-62
2021/08/30 07:04:12;;;;;;;15.57;11.63;;;18.10;99.90;;;;;;5073712;28;20805;-61
2021/08/30 07:06:39;;;;;;;12.03;10.73;;;18.10;99.90;;;;;;5073145;28;20477;-62
2021/08/30 07:09:06;;;;;;;13.30;10.83;;;18.10;99.90;;;;;;5073375;28;20469;-61
2021/08/30 07:11:33;;;;;;;20.43;17.53;;;18.10;99.90;;;;;;5072938;28;20549;-62
2021/08/30 07:14:01;;;;;;;17.77;16.03;;;18.10;99.90;;;;;;5073324;28;20462;-62
2021/08/30 07:16:29;;;;;;;17.10;14.10;;;18.10;99.90;;;;;;5073372;28;20469;-62
2021/08/30 07:18:56;;;;;;;12.60;10.60;;;18.10;99.90;;;;;;5072913;28;20454;-62
2021/08/30 07:21:23;;;;;;;11.63;10.00;;;18.10;99.90;;;;;;5073303;28;20481;-62
2021/08/30 07:23:50;;;;;;;11.90;10.07;;;18.20;99.90;;;;;;5072900;28;20470;-62
2021/08/30 07:26:17;;;;;;;11.27;10.23;;;18.20;99.90;;;;;;5073150;28;20989;-62
2021/08/30 07:28:44;;;;;;;10.17;9.20;;;18.20;99.90;;;;;;5072645;28;20466;-63
2021/08/30 07:31:14;;;;;;;12.67;10.70;;;18.20;99.90;;;;;;5072929;28;20470;-62
2021/08/30 07:33:41;;;;;;;12.53;11.23;;;18.30;99.90;;;;;;5072513;28;20477;-62
2021/08/30 07:36:08;;;;;;;12.97;11.43;;;18.30;99.90;;;;;;5073065;28;20488;-62
2021/08/30 07:38:35;;;;;;;12.50;11.20;;;18.20;99.90;;;;;;5072229;28;20474;-62
2021/08/30 07:41:02;;;;;;;12.93;11.13;;;18.20;99.90;;;;;;5072967;28;20473;-62
2021/08/30 07:43:29;;;;;;;12.83;11.00;;;18.30;99.90;;;;;;5072728;28;20553;-62
2021/08/30 07:45:59;;;;;;;12.23;10.70;;;18.30;99.90;;;;;;5072283;28;20477;-62
2021/08/30 07:48:27;;;;;;;12.63;11.20;;;18.30;99.90;;;;;;5072799;28;20474;-62
2021/08/30 07:50:54;;;;;;;12.63;11.40;;;18.40;99.90;;;;;;5072458;28;20807;-62
2021/08/30 07:53:25;;;;;;;13.70;11.77;;;18.30;99.90;;;;;;5072794;28;20819;-62
2021/08/30 07:55:52;;;;;;;11.40;10.20;;;18.30;99.90;;;;;;5072389;28;20462;-62
2021/08/30 07:58:19;;;;;;;12.47;10.07;;;18.30;99.90;;;;;;5072802;28;20470;-62
2021/08/30 08:00:45;;;;;;;14.43;11.67;;;18.30;99.90;;;;;;5072321;28;20470;-62
2021/08/30 08:03:12;;;;;;;12.23;10.17;;;18.40;99.90;;;;;;5072855;28;20488;-62
2021/08/30 08:05:40;;;;;;;12.50;10.73;;;18.30;99.90;;;;;;5071981;28;20466;-61
2021/08/30 08:08:07;;;;;;;12.33;9.87;;;18.30;99.90;;;;;;5072554;28;20470;-61
2021/08/30 08:10:34;;;;;;;10.50;9.43;;;18.40;99.90;;;;;;5072706;28;20477;-60
2021/08/30 08:13:01;;;;;;;11.40;9.27;;;18.40;99.90;;;;;;5072374;28;20537;-60
2021/08/30 08:15:28;;;;;;;11.03;9.80;;;18.50;99.90;;;;;;5072534;28;20470;-60
2021/08/30 08:17:55;;;;;;;11.40;9.40;;;18.50;99.90;;;;;;5072080;28;20462;-60
2021/08/30 08:20:21;;;;;;;11.47;9.67;;;18.50;99.90;;;;;;5072454;28;20462;-60
2021/08/30 08:22:50;;;;;;;10.70;9.10;;;18.60;99.90;;;;;;5072040;28;20470;-61
2021/08/30 08:25:17;;;;;;;13.60;9.90;;;18.70;99.90;;;;;;5072637;28;20545;-61
2021/08/30 08:27:44;;;;;;;10.10;9.10;;;18.60;99.90;;;;;;5072034;28;20477;-60
2021/08/30 08:30:11;;;;;;;10.33;9.27;;;18.70;99.90;;;;;;5072165;28;20485;-62
2021/08/30 08:32:40;;;;;;;10.53;9.43;;;18.70;99.90;;;;;;5072066;28;20484;-61
2021/08/30 08:35:08;;;;;;;10.93;9.50;;;18.70;99.90;;;;;;5072370;28;20504;-61
2021/08/30 08:37:35;;;;;;;11.80;9.13;;;18.70;99.90;;;;;;5072238;28;20472;-61
2021/08/30 08:40:04;;;;;;;9.00;8.10;;;18.80;99.90;;;;;;5071966;28;20532;-62
2021/08/30 08:42:31;;;;;;;8.70;7.90;;;18.70;99.90;;;;;;5072393;28;20463;-62
2021/08/30 08:44:58;;;;;;;7.20;6.57;;;18.80;99.90;;;;;;5071701;28;23237;-61
2021/08/30 08:47:25;;;;;;;8.50;7.60;;;18.80;99.90;;;;;;5072156;28;20458;-61
2021/08/30 08:49:56;;;;;;;8.97;7.97;;;18.70;99.90;;;;;;5073498;28;20819;-61
2021/08/30 08:52:23;;;;;;;8.07;7.27;;;18.70;99.90;;;;;;5076137;28;20468;-61
2021/08/30 08:54:50;;;;;;;8.10;7.40;;;18.70;99.90;;;;;;5075750;28;20476;-61
2021/08/30 08:57:18;;;;;;;8.20;7.40;;;18.80;99.90;;;;;;5075873;28;20466;-62
2021/08/30 08:59:56;;;;;;;7.83;7.03;;;18.80;99.90;;;;;;5075611;28;20481;-61
2021/08/30 09:02:26;;;;;;;6.50;6.00;;;18.90;99.90;;;;;;5076106;28;20466;-62
2021/08/30 09:04:54;;;;;;;6.80;6.30;;;19.00;99.90;;;;;;5075640;28;20812;-61
2021/08/30 09:07:28;;;;;;;6.83;5.97;;;19.00;99.90;;;;;;5075694;28;20473;-62
2021/08/30 09:09:57;;;;;;;7.10;6.07;;;19.10;99.90;;;;;;5075431;28;20465;-61
2021/08/30 09:12:25;;;;;;;5.60;5.13;;;19.10;99.90;;;;;;5075895;28;20466;-61
2021/08/30 09:14:53;;;;;;;6.57;5.97;;;19.10;99.90;;;;;;5075401;28;20476;-62
2021/08/30 09:17:20;;;;;;;7.17;6.47;;;19.20;99.90;;;;;;5075785;28;20462;-61
2021/08/30 09:19:47;;;;;;;8.23;7.17;;;19.10;99.90;;;;;;5075167;28;20549;-62
2021/08/30 09:22:14;;;;;;;8.17;7.37;;;19.20;99.90;;;;;;5075671;28;20655;-62
2021/08/30 09:24:41;;;;;;;6.30;5.70;;;19.20;99.90;;;;;;5075603;28;20466;-61
2021/08/30 09:27:10;;;;;;;10.40;7.10;;;19.20;99.90;;;;;;5075121;28;20460;-62
2021/08/30 09:29:41;;;;;;;8.33;7.60;;;19.20;99.90;;;;;;5075407;28;20458;-61
2021/08/30 09:32:10;;;;;;;7.70;7.00;;;19.20;99.90;;;;;;5075182;28;20457;-61
2021/08/30 09:34:39;;;;;;;6.60;5.97;;;19.20;99.90;;;;;;5075544;28;20528;-61
2021/08/30 09:37:12;;;;;;;5.53;5.13;;;19.20;99.90;;;;;;5074684;28;20454;-62
2021/08/30 09:39:45;;;;;;;7.47;6.87;;;19.30;99.90;;;;;;5075357;28;20812;-60
2021/08/30 09:42:12;;;;;;;8.60;7.80;;;19.20;99.90;;;;;;5075228;28;21255;-60
2021/08/30 09:44:41;;;;;;;8.97;8.17;;;19.20;99.90;;;;;;5075145;28;20472;-60
2021/08/30 09:47:12;;;;;;;7.80;7.20;;;19.30;99.90;;;;;;5074654;28;20486;-61
2021/08/30 09:49:40;;;;;;;7.00;6.50;;;19.20;99.90;;;;;;5075269;28;20501;-62
2021/08/30 09:52:07;;;;;;;7.33;6.33;;;19.30;99.90;;;;;;5074507;28;20990;-62
2021/08/30 09:54:34;;;;;;;6.50;5.90;;;19.20;99.90;;;;;;5075150;28;20480;-62
2021/08/30 09:57:03;;;;;;;7.10;6.50;;;19.20;99.90;;;;;;5074577;28;20478;-61
2021/08/30 09:59:31;;;;;;;5.97;5.57;;;19.20;99.90;;;;;;5074937;28;20469;-62
2021/08/30 10:02:02;;;;;;;6.07;5.43;;;19.30;99.90;;;;;;5073000;28;20937;-62
2021/08/30 10:04:30;;;;;;;6.00;5.50;;;19.20;99.90;;;;;;5074948;28;20519;-62
2021/08/30 10:06:57;;;;;;;6.17;5.57;;;19.30;99.90;;;;;;5074332;28;20473;-62
2021/08/30 10:09:24;;;;;;;5.53;5.13;;;19.20;99.90;;;;;;5074728;28;20470;-60
2021/08/30 10:11:54;;;;;;;5.60;5.20;;;19.20;99.90;;;;;;5074461;28;20477;-61
2021/08/30 10:14:24;;;;;;;5.47;4.97;;;19.20;99.90;;;;;;5074822;28;20821;-61
2021/08/30 10:16:52;;;;;;;8.23;7.43;;;19.20;99.90;;;;;;5074004;28;20462;-61
2021/08/30 10:19:28;;;;;;;6.83;6.13;;;19.20;99.90;;;;;;5074576;28;20466;-61
2021/08/30 10:21:56;;;;;;;7.40;6.70;;;19.30;99.90;;;;;;5074264;28;20466;-61
2021/08/30 10:24:25;;;;;;;6.87;6.17;;;19.30;99.90;;;;;;5074693;28;20799;-61
2021/08/30 10:26:59;;;;;;;7.57;7.00;;;19.30;99.90;;;;;;5073995;28;20466;-61
2021/08/30 10:29:32;;;;;;;9.53;8.63;;;19.40;99.90;;;;;;5074414;28;20507;-61
2021/08/30 10:31:59;;;;;;;8.50;7.63;;;19.40;99.90;;;;;;5073756;28;20968;-61
2021/08/30 10:34:29;;;;;;;7.80;7.20;;;19.40;99.90;;;;;;5074419;28;20804;-61
2021/08/30 10:36:56;;;;;;;7.50;6.90;;;19.40;99.90;;;;;;5073586;28;20462;-61
2021/08/30 10:39:24;;;;;;;6.53;6.03;;;19.40;99.90;;;;;;5074143;28;20808;-61
2021/08/30 10:41:51;;;;;;;6.33;5.77;;;19.40;99.90;;;;;;5074109;28;20476;-61
2021/08/30 10:44:20;;;;;;;7.40;6.80;;;19.40;99.90;;;;;;5073826;28;20468;-61
2021/08/30 10:46:51;;;;;;;6.80;6.30;;;19.50;99.90;;;;;;5073997;28;20561;-61
2021/08/30 10:49:20;;;;;;;5.40;4.97;;;19.50;99.90;;;;;;5073377;28;20491;-61
2021/08/30 10:51:49;;;;;;;6.33;5.83;;;19.50;99.90;;;;;;5073958;28;20463;-61
2021/08/30 10:54:19;;;;;;;5.43;4.93;;;19.50;99.90;;;;;;5073520;28;20465;-61
2021/08/30 10:56:57;;;;;;;6.27;5.17;;;19.50;99.90;;;;;;5073835;28;20470;-61
2021/08/30 10:59:26;;;;;;;4.87;4.57;;;19.50;99.90;;;;;;5073435;28;20454;-61
2021/08/30 11:01:55;;;;;;;6.97;6.30;;;19.50;99.90;;;;;;5073717;28;20549;-61
2021/08/30 11:04:31;;;;;;;6.53;6.03;;;19.50;99.90;;;;;;5073251;28;20461;-61
2021/08/30 11:06:59;;;;;;;6.00;5.50;;;19.50;99.90;;;;;;5073597;28;20470;-61
2021/08/30 11:09:26;;;;;;;5.93;5.43;;;19.50;99.90;;;;;;5073316;28;20793;-61
2021/08/30 11:11:53;;;;;;;6.63;6.03;;;19.50;99.90;;;;;;5073244;28;20532;-60
2021/08/30 11:14:21;;;;;;;6.60;6.10;;;19.50;99.90;;;;;;5073118;28;20476;-61
2021/08/30 11:16:55;;;;;;;6.37;5.83;;;19.50;99.90;;;;;;5073539;28;20473;-61
2021/08/30 11:19:23;;;;;;;5.60;5.10;;;19.50;99.90;;;;;;5072897;28;21851;-61
2021/08/30 11:21:54;;;;;;;7.70;7.10;;;19.60;99.90;;;;;;5073267;28;20470;-61
2021/08/30 11:24:25;;;;;;;7.23;6.53;;;19.60;99.90;;;;;;5072949;28;21009;-61
2021/08/30 11:26:53;;;;;;;8.23;7.53;;;19.60;99.90;;;;;;5073278;28;20952;-61
2021/08/30 11:29:20;;;;;;;5.50;5.00;;;19.70;99.90;;;;;;5072618;28;20470;-61
2021/08/30 11:31:47;;;;;;;7.67;7.07;;;19.70;99.90;;;;;;5073264;28;20743;-61
2021/08/30 11:34:25;;;;;;;7.43;6.73;;;19.70;99.90;;;;;;5072827;28;20871;-60
2021/08/30 11:36:53;;;;;;;7.63;6.40;;;19.70;99.90;;;;;;5073037;28;20462;-60
2021/08/30 11:39:22;;;;;;;8.37;7.47;;;19.70;99.90;;;;;;5072419;28;20966;-61
2021/08/30 11:41:54;;;;;;;7.63;6.97;;;19.80;99.90;;;;;;5073062;28;20470;-61
2021/08/30 11:44:21;;;;;;;7.63;7.00;;;19.90;99.90;;;;;;5072470;28;20458;-62
2021/08/30 11:46:50;;;;;;;7.30;6.40;;;19.90;99.90;;;;;;5072732;28;20470;-62
2021/08/30 11:49:17;;;;;;;6.73;6.13;;;20.00;99.90;;;;;;5072435;28;20986;-62
2021/08/30 11:51:46;;;;;;;6.43;5.93;;;20.00;99.90;;;;;;5072969;28;20785;-62
2021/08/30 11:54:14;;;;;;;5.50;5.10;;;20.10;99.90;;;;;;5072229;28;20982;-61
2021/08/30 11:56:52;;;;;;;6.67;6.07;;;20.10;99.90;;;;;;5072893;28;20467;-61
2021/08/30 11:59:29;;;;;;;6.27;5.73;;;20.10;99.90;;;;;;5072230;28;20466;-61
2021/08/30 12:01:57;;;;;;;6.07;4.70;;;20.20;99.90;;;;;;5072921;28;20468;-61
2021/08/30 12:04:27;;;;;;;5.77;5.10;;;20.10;99.90;;;;;;5072095;28;20476;-61
2021/08/30 12:06:55;;;;;;;5.73;5.23;;;20.10;99.90;;;;;;5072485;28;20462;-61
2021/08/30 12:09:22;;;;;;;6.40;5.90;;;20.10;99.90;;;;;;5072274;28;20825;-62
2021/08/30 12:11:55;;;;;;;6.77;5.90;;;20.10;99.90;;;;;;5072785;28;20477;-61
2021/08/30 12:14:23;;;;;;;5.20;4.80;;;20.10;99.90;;;;;;5072057;28;20478;-61
2021/08/30 12:16:58;;;;;;;5.03;4.60;;;20.10;99.90;;;;;;5072658;28;20490;-62
2021/08/30 12:19:27;;;;;;;5.33;4.73;;;20.10;99.90;;;;;;5072102;28;20458;-62
2021/08/30 12:21:56;;;;;;;7.60;4.70;;;20.10;99.90;;;;;;5072456;28;20517;-61
2021/08/30 12:24:23;;;;;;;5.23;4.83;;;20.10;99.90;;;;;;5071152;28;20535;-61
2021/08/30 12:26:53;;;;;;;5.67;4.90;;;20.10;99.90;;;;;;5072745;28;20472;-61
2021/08/30 12:29:20;;;;;;;5.60;4.93;;;20.10;99.90;;;;;;5071818;28;20474;-61
2021/08/30 12:31:56;;;;;;;5.93;4.77;;;20.00;99.90;;;;;;5072689;28;20800;-61
2021/08/30 12:34:26;;;;;;;5.10;4.60;;;20.00;99.90;;;;;;5072040;28;20466;-61
2021/08/30 12:36:53;;;;;;;4.93;4.43;;;20.00;99.90;;;;;;5072357;28;20470;-61
2021/08/30 12:39:20;;;;;;;5.13;4.63;;;20.10;99.90;;;;;;5071871;28;20463;-61
2021/08/30 12:41:47;;;;;;;5.60;5.00;;;20.10;99.90;;;;;;5072555;28;20847;-61
2021/08/30 12:44:15;;;;;;;4.50;4.20;;;20.10;99.90;;;;;;5071853;28;20817;-61
2021/08/30 12:46:42;;;;;;;4.60;4.20;;;20.10;99.90;;;;;;5072168;28;20472;-61
2021/08/30 12:49:09;;;;;;;5.30;4.40;;;20.10;99.90;;;;;;5071985;28;20517;-61
2021/08/30 12:51:36;;;;;;;4.80;4.30;;;20.20;99.90;;;;;;5072150;28;20466;-61
2021/08/30 12:54:03;;;;;;;6.50;5.87;;;20.20;99.90;;;;;;5072033;28;20956;-61
2021/08/30 12:56:30;;;;;;;5.83;5.33;;;20.30;99.90;;;;;;5071805;28;20465;-61
2021/08/30 12:58:56;;;;;;;6.10;4.20;;;20.30;99.90;;;;;;5072025;28;20467;-61